createdAt,value
2022-10-01T00:01:15.633Z,5.5
2022-10-01T00:02:30.939Z,6.8
2022-10-01T00:03:47.240Z,8.6
2022-10-01T00:05:03.518Z,5.1
2022-10-01T00:06:19.814Z,10.3
2022-10-01T00:07:36.113Z,5.2
2022-10-01T00:08:52.405Z,4.5
2022-10-01T00:10:08.692Z,9.8
2022-10-01T00:11:24.995Z,5.4
2022-10-01T00:12:41.280Z,7.6
2022-10-01T00:13:57.565Z,4.9
2022-10-01T00:15:13.870Z,4.3
2022-10-01T00:16:30.152Z,5.7
2022-10-01T00:17:46.459Z,4.7
2022-10-01T00:19:01.755Z,5.9
2022-10-01T00:20:18.061Z,6.5
2022-10-01T00:21:34.345Z,5.1
2022-10-01T00:22:50.641Z,5.3
2022-10-01T00:24:06.928Z,5.4
2022-10-01T00:25:23.228Z,4.4
2022-10-01T00:26:39.530Z,6.5
2022-10-01T00:27:55.815Z,6.3
2022-10-01T00:29:12.102Z,7.2
2022-10-01T00:30:28.391Z,6.6
2022-10-01T00:31:44.687Z,6.8
2022-10-01T00:33:00.978Z,5.3
2022-10-01T00:34:17.280Z,4.8
2022-10-01T00:35:32.597Z,5.1
2022-10-01T00:36:48.879Z,5.8
2022-10-01T00:38:05.176Z,4.6
2022-10-01T00:39:21.466Z,7.1
2022-10-01T00:40:37.752Z,7.5
2022-10-01T00:41:54.047Z,4.4
2022-10-01T00:43:10.338Z,7.1
2022-10-01T00:44:26.641Z,6.6
2022-10-01T00:45:42.922Z,5.8
2022-10-01T00:46:59.225Z,5.5
2022-10-01T00:48:15.515Z,7
2022-10-01T00:49:31.797Z,5.1
2022-10-01T00:50:48.097Z,3.9
2022-10-01T00:52:03.406Z,8
2022-10-01T00:53:19.696Z,4.9
2022-10-01T00:54:35.987Z,6.4
2022-10-01T00:55:52.291Z,5.8
2022-10-01T00:57:08.581Z,6.1
2022-10-01T00:58:24.869Z,5.1
2022-10-01T00:59:41.164Z,5.6
2022-10-01T01:00:57.463Z,6.5
2022-10-01T01:02:13.751Z,5.4
2022-10-01T01:03:30.048Z,6.2
2022-10-01T01:04:46.329Z,5.8
2022-10-01T01:06:02.632Z,5.1
2022-10-01T01:07:18.919Z,4.5
2022-10-01T01:08:34.227Z,7
2022-10-01T01:09:50.521Z,5.3
2022-10-01T01:11:06.827Z,8.5
2022-10-01T01:12:23.105Z,7.2
2022-10-01T01:13:39.414Z,6
2022-10-01T01:14:55.691Z,6.6
2022-10-01T01:16:11.021Z,5.8
2022-10-01T01:17:27.297Z,5.6
2022-10-01T01:18:43.595Z,6.5
2022-10-01T01:19:59.894Z,4.8
2022-10-01T01:21:16.176Z,7.6
2022-10-01T01:22:32.468Z,8.2
2022-10-01T01:23:48.764Z,5.8
2022-10-01T01:25:05.071Z,6.1
2022-10-01T01:26:21.347Z,6.5
2022-10-01T01:27:37.653Z,5.5
2022-10-01T01:28:53.947Z,7.1
2022-10-01T01:30:10.233Z,7.5
2022-10-01T01:31:26.519Z,6.4
2022-10-01T01:32:41.845Z,9.6
2022-10-01T01:33:58.129Z,5.1
2022-10-01T01:35:14.430Z,5.9
2022-10-01T01:36:30.709Z,4
2022-10-01T01:37:47.014Z,9.3
2022-10-01T01:39:03.300Z,5.1
2022-10-01T01:40:19.591Z,6.2
2022-10-01T01:41:35.889Z,7
2022-10-01T01:42:52.173Z,5.8
2022-10-01T01:44:08.470Z,9.9
2022-10-01T01:45:24.752Z,5.7
2022-10-01T01:46:41.053Z,5.7
2022-10-01T01:47:57.354Z,4.8
2022-10-01T01:49:12.660Z,6
2022-10-01T01:50:28.960Z,8.6
2022-10-01T01:51:45.234Z,4.4
2022-10-01T01:53:01.534Z,7.1
2022-10-01T01:54:17.827Z,5.9
2022-10-01T01:55:34.127Z,5.2
2022-10-01T01:56:50.415Z,6
2022-10-01T01:58:06.713Z,4.8
2022-10-01T01:59:22.991Z,4.6
2022-10-01T02:00:39.301Z,4.2
2022-10-01T02:01:55.590Z,6.9
2022-10-01T02:03:11.878Z,4.9
2022-10-01T02:04:28.179Z,5.9
2022-10-01T02:05:43.481Z,5.6
2022-10-01T02:06:59.766Z,5.3
2022-10-01T02:08:16.071Z,4.3
2022-10-01T02:09:32.359Z,6.3
2022-10-01T02:10:48.651Z,7.8
2022-10-01T02:12:04.944Z,5.2
2022-10-01T02:13:21.242Z,6.9
2022-10-01T02:14:37.521Z,5.4
2022-10-01T02:15:53.824Z,7
2022-10-01T02:17:10.117Z,5.8
2022-10-01T02:18:26.409Z,15.6
2022-10-01T02:19:42.700Z,5.4
2022-10-01T02:20:58.994Z,10
2022-10-01T02:22:14.313Z,4.9
2022-10-01T02:23:30.587Z,6.1
2022-10-01T02:24:46.880Z,4.6
2022-10-01T02:26:03.184Z,8.4
2022-10-01T02:27:19.479Z,5.3
2022-10-01T02:28:35.773Z,5.2
2022-10-01T02:29:52.071Z,8
2022-10-01T02:31:08.363Z,5.1
2022-10-01T02:32:24.658Z,5.2
2022-10-01T02:33:40.943Z,6.6
2022-10-01T02:34:57.242Z,4.8
2022-10-01T02:36:13.518Z,5.2
2022-10-01T02:37:29.826Z,5.5
2022-10-01T02:38:45.136Z,6.1
2022-10-01T02:40:01.422Z,5.5
2022-10-01T02:41:17.707Z,6.6
2022-10-01T02:43:50.309Z,4.1
2022-10-01T02:45:06.602Z,9.7
2022-10-01T02:46:22.895Z,6
2022-10-01T02:47:39.177Z,6.7
2022-10-01T02:48:55.469Z,4.9
2022-10-01T02:50:11.769Z,5.8
2022-10-01T02:51:28.056Z,5.6
2022-10-01T02:52:44.344Z,5
2022-10-01T02:54:00.651Z,6.2
2022-10-01T02:55:15.954Z,5.4
2022-10-01T02:56:32.237Z,7.2
2022-10-01T02:57:48.547Z,5.6
2022-10-01T02:59:04.839Z,5.9
2022-10-01T03:00:21.131Z,7.1
2022-10-01T03:01:37.419Z,5.5
2022-10-01T03:02:53.700Z,5
2022-10-01T03:04:10.013Z,5.7
2022-10-01T03:05:26.306Z,11
2022-10-01T03:06:42.600Z,4.9
2022-10-01T03:07:58.890Z,5.3
2022-10-01T03:09:15.173Z,5.6
2022-10-01T03:10:31.476Z,6.6
2022-10-01T03:11:46.787Z,5.8
2022-10-01T03:13:03.061Z,5
2022-10-01T03:14:19.367Z,6.1
2022-10-01T03:15:35.656Z,9.3
2022-10-01T03:16:51.942Z,4.5
2022-10-01T03:18:08.236Z,8.1
2022-10-01T03:19:24.525Z,7.3
2022-10-01T03:20:40.831Z,5.9
2022-10-01T03:21:57.121Z,6.4
2022-10-01T03:23:13.411Z,5.7
2022-10-01T03:24:29.712Z,5.7
2022-10-01T03:25:46.004Z,5.6
2022-10-01T03:27:02.283Z,5.1
2022-10-01T03:28:17.592Z,9.5
2022-10-01T03:29:33.895Z,7.2
2022-10-01T03:30:50.191Z,6.5
2022-10-01T03:32:06.477Z,6.3
2022-10-01T03:33:22.764Z,5.5
2022-10-01T03:34:39.071Z,6.7
2022-10-01T03:35:55.349Z,5.2
2022-10-01T03:37:11.657Z,5.9
2022-10-01T03:38:27.950Z,4.7
2022-10-01T03:39:44.238Z,6.1
2022-10-01T03:41:00.522Z,7
2022-10-01T03:42:16.825Z,5.9
2022-10-01T03:43:33.118Z,5.9
2022-10-01T03:44:48.430Z,7.5
2022-10-01T03:46:04.711Z,6.1
2022-10-01T03:47:21.007Z,7.3
2022-10-01T03:48:37.297Z,7.7
2022-10-01T03:49:53.595Z,7.4
2022-10-01T03:51:09.885Z,5.4
2022-10-01T03:52:26.189Z,11.6
2022-10-01T03:53:42.485Z,6.8
2022-10-01T03:54:58.771Z,4.9
2022-10-01T03:56:15.064Z,5.2
2022-10-01T03:57:31.358Z,7.7
2022-10-01T03:58:47.654Z,6.5
2022-10-01T04:00:03.932Z,6.5
2022-10-01T04:01:19.249Z,6.1
2022-10-01T04:02:35.544Z,5.6
2022-10-01T04:03:51.832Z,7.2
2022-10-01T04:05:08.130Z,7.5
2022-10-01T04:06:24.414Z,5.2
2022-10-01T04:07:40.713Z,5.8
2022-10-01T04:08:56.998Z,6.4
2022-10-01T04:10:13.305Z,5.9
2022-10-01T04:11:29.593Z,6.4
2022-10-01T04:12:45.881Z,7.5
2022-10-01T04:14:02.169Z,5.6
2022-10-01T04:15:18.475Z,6
2022-10-01T04:16:34.762Z,5.1
2022-10-01T04:17:50.068Z,6.8
2022-10-01T04:19:06.363Z,5.7
2022-10-01T04:20:22.654Z,9.5
2022-10-01T04:21:38.941Z,5.5
2022-10-01T04:22:55.250Z,5.1
2022-10-01T04:24:11.530Z,4.8
2022-10-01T04:25:27.829Z,5.4
2022-10-01T04:26:44.130Z,9.1
2022-10-01T04:28:00.411Z,5.4
2022-10-01T04:29:16.698Z,5.4
2022-10-01T04:30:32.992Z,6
2022-10-01T04:31:49.302Z,7.5
2022-10-01T04:33:05.596Z,10.1
2022-10-01T04:34:20.890Z,6.8
2022-10-01T04:35:37.193Z,8.2
2022-10-01T04:38:09.767Z,4.9
2022-10-01T04:39:26.060Z,5.9
2022-10-01T04:40:42.316Z,6.2
2022-10-01T04:41:58.559Z,5.3
2022-10-01T04:43:14.794Z,4.8
2022-10-01T04:44:31.031Z,4.8
2022-10-01T04:45:47.339Z,5.1
2022-10-01T04:47:03.590Z,7.5
2022-10-01T04:48:19.826Z,8.6
2022-10-01T04:49:36.067Z,5.1
2022-10-01T04:50:51.386Z,5.4
2022-10-01T04:52:07.633Z,8
2022-10-01T04:53:23.866Z,7
2022-10-01T04:54:40.116Z,5.6
2022-10-01T04:55:56.339Z,6.8
2022-10-01T04:57:12.593Z,5.6
2022-10-01T04:58:28.831Z,5.3
2022-10-01T04:59:45.062Z,6.9
2022-10-01T05:01:01.296Z,5.8
2022-10-01T05:02:17.548Z,5.2
2022-10-01T05:03:33.785Z,4.9
2022-10-01T05:04:50.021Z,4.9
2022-10-01T05:06:06.257Z,5.6
2022-10-01T05:07:21.514Z,6.2
2022-10-01T05:08:37.746Z,6.9
2022-10-01T05:09:53.983Z,4.3
2022-10-01T05:11:10.000Z,7.5
2022-10-01T05:12:26.474Z,6
2022-10-01T05:13:42.710Z,6.2
2022-10-01T05:14:58.941Z,6
2022-10-01T05:16:15.193Z,5.6
2022-10-01T05:17:31.425Z,7.6
2022-10-01T05:18:47.654Z,6.8
2022-10-01T05:20:03.901Z,8.6
2022-10-01T05:21:20.142Z,5.4
2022-10-01T05:22:36.376Z,7.7
2022-10-01T05:23:51.639Z,7.3
2022-10-01T05:25:07.878Z,6.2
2022-10-01T05:26:24.121Z,7.5
2022-10-01T05:27:40.357Z,6.4
2022-10-01T05:28:56.585Z,4.4
2022-10-01T05:30:12.820Z,6.2
2022-10-01T05:31:28.085Z,6.3
2022-10-01T05:32:44.332Z,5.7
2022-10-01T05:34:00.558Z,5.4
2022-10-01T05:35:16.813Z,7.7
2022-10-01T05:36:33.034Z,6.1
2022-10-01T05:37:49.276Z,5.8
2022-10-01T05:39:05.516Z,7.6
2022-10-01T05:40:21.765Z,6
2022-10-01T05:41:38.002Z,7.1
2022-10-01T05:42:54.235Z,6.1
2022-10-01T05:44:10.473Z,5.2
2022-10-01T05:45:26.707Z,7.9
2022-10-01T05:46:42.962Z,4.4
2022-10-01T05:47:58.204Z,5.4
2022-10-01T05:49:14.442Z,7.3
2022-10-01T05:50:30.696Z,5.8
2022-10-01T05:51:46.935Z,5.9
2022-10-01T05:53:03.168Z,5.2
2022-10-01T05:54:19.397Z,5
2022-10-01T05:55:35.634Z,5.3
2022-10-01T05:56:51.877Z,5.2
2022-10-01T05:58:08.113Z,4.9
2022-10-01T05:59:24.353Z,4.1
2022-10-01T06:00:40.601Z,4.7
2022-10-01T06:01:56.833Z,4.2
2022-10-01T06:03:13.070Z,5.6
2022-10-01T06:04:28.333Z,4.3
2022-10-01T06:05:44.560Z,4.9
2022-10-01T06:07:00.815Z,6.7
2022-10-01T06:08:17.044Z,5.3
2022-10-01T06:09:33.289Z,7.7
2022-10-01T06:10:49.524Z,6.1
2022-10-01T06:12:05.773Z,7.2
2022-10-01T06:13:22.004Z,6.4
2022-10-01T06:14:38.249Z,4.9
2022-10-01T06:15:54.474Z,6.6
2022-10-01T06:17:10.729Z,4.2
2022-10-01T06:18:26.967Z,5.9
2022-10-01T06:19:43.198Z,5.4
2022-10-01T06:20:58.444Z,5.3
2022-10-01T06:22:14.696Z,5.7
2022-10-01T06:23:30.921Z,5.8
2022-10-01T06:24:47.164Z,7.1
2022-10-01T06:26:03.409Z,5.8
2022-10-01T06:27:19.656Z,6.2
2022-10-01T06:28:35.878Z,4.9
2022-10-01T06:29:52.122Z,5.2
2022-10-01T06:31:08.368Z,5.2
2022-10-01T06:32:24.606Z,5.2
2022-10-01T06:33:40.845Z,6.3
2022-10-01T06:34:57.083Z,4.8
2022-10-01T06:36:13.318Z,6.1
2022-10-01T06:37:28.582Z,5.5
2022-10-01T06:38:44.812Z,4.7
2022-10-01T06:40:01.043Z,6.8
2022-10-01T06:41:17.282Z,4
2022-10-01T06:42:33.529Z,4.5
2022-10-01T06:43:49.772Z,4.8
2022-10-01T06:45:06.017Z,6.1
2022-10-01T06:46:22.241Z,6.2
2022-10-01T06:47:38.476Z,6.1
2022-10-01T06:48:54.733Z,7
2022-10-01T06:50:10.955Z,6.2
2022-10-01T06:51:27.200Z,5.4
2022-10-01T06:52:43.432Z,5.7
2022-10-01T06:53:58.692Z,4.9
2022-10-01T06:55:14.929Z,5.8
2022-10-01T06:56:31.173Z,7.6
2022-10-01T06:57:47.404Z,9.1
2022-10-01T06:59:03.657Z,5.1
2022-10-01T07:00:19.896Z,5.7
2022-10-01T07:01:36.130Z,7
2022-10-01T07:02:52.370Z,5.7
2022-10-01T07:04:08.612Z,7.6
2022-10-01T07:05:24.845Z,5.2
2022-10-01T07:06:41.092Z,6.5
2022-10-01T07:07:57.333Z,6.1
2022-10-01T07:09:13.563Z,7.5
2022-10-01T07:10:28.816Z,7
2022-10-01T07:11:45.060Z,5.8
2022-10-01T07:13:01.287Z,4.9
2022-10-01T07:14:17.532Z,7.7
2022-10-01T07:15:33.764Z,7.9
2022-10-01T07:16:50.014Z,4.3
2022-10-01T07:18:06.256Z,6.5
2022-10-01T07:19:22.486Z,6.1
2022-10-01T07:20:38.725Z,6.4
2022-10-01T07:21:54.972Z,7.1
2022-10-01T07:23:11.210Z,6.2
2022-10-01T07:24:27.442Z,8.7
2022-10-01T07:25:43.683Z,7.4
2022-10-01T07:26:58.940Z,7.5
2022-10-01T07:28:15.174Z,7.2
2022-10-01T07:29:31.411Z,5.4
2022-10-01T07:30:47.666Z,7.4
2022-10-01T07:32:03.898Z,7.5
2022-10-01T07:33:20.139Z,5.6
2022-10-01T07:34:36.382Z,6.8
2022-10-01T07:35:52.603Z,8.7
2022-10-01T07:37:08.851Z,6.8
2022-10-01T07:38:25.081Z,8.8
2022-10-01T07:39:41.328Z,6.6
2022-10-01T07:40:57.565Z,7
2022-10-01T07:42:13.804Z,5.3
2022-10-01T07:43:29.070Z,6
2022-10-01T07:44:45.292Z,5.3
2022-10-01T07:46:01.527Z,5.5
2022-10-01T07:47:17.777Z,7.5
2022-10-01T07:48:34.010Z,5.6
2022-10-01T07:49:50.249Z,5.1
2022-10-01T07:51:06.501Z,6.4
2022-10-01T07:52:22.726Z,5.6
2022-10-01T07:53:38.981Z,5.4
2022-10-01T07:54:55.204Z,7.4
2022-10-01T07:56:11.452Z,6.3
2022-10-01T07:57:27.687Z,6.2
2022-10-01T07:58:43.918Z,7.7
2022-10-01T07:59:59.189Z,5.8
2022-10-01T08:01:15.420Z,9.4
2022-10-01T08:02:31.649Z,6.6
2022-10-01T08:03:47.906Z,6.9
2022-10-01T08:05:04.138Z,9.1
2022-10-01T08:06:20.367Z,7.1
2022-10-01T08:07:36.622Z,6.2
2022-10-01T08:08:52.855Z,6.4
2022-10-01T08:10:09.082Z,7.6
2022-10-01T08:11:25.336Z,5.4
2022-10-01T08:12:41.572Z,6.7
2022-10-01T08:13:57.801Z,5.9
2022-10-01T08:15:14.045Z,5.9
2022-10-01T08:16:29.310Z,6.7
2022-10-01T08:17:45.540Z,5.5
2022-10-01T08:19:01.773Z,7.2
2022-10-01T08:20:18.020Z,6.5
2022-10-01T08:21:34.266Z,6.1
2022-10-01T08:22:50.493Z,6.2
2022-10-01T08:24:06.728Z,7.9
2022-10-01T08:25:22.967Z,7.3
2022-10-01T08:26:39.221Z,5.6
2022-10-01T08:27:55.439Z,9.7
2022-10-01T08:29:11.698Z,7.5
2022-10-01T08:30:27.935Z,7.1
2022-10-01T08:31:44.162Z,5.5
2022-10-01T08:32:59.429Z,6.7
2022-10-01T08:34:15.664Z,7.4
2022-10-01T08:35:31.893Z,5.9
2022-10-01T08:36:48.144Z,4.9
2022-10-01T08:38:04.370Z,11.9
2022-10-01T08:39:20.623Z,13.3
2022-10-01T08:40:36.848Z,9.1
2022-10-01T08:41:53.086Z,10.4
2022-10-01T08:43:09.338Z,6.5
2022-10-01T08:44:25.571Z,5.6
2022-10-01T08:45:41.815Z,6.6
2022-10-01T08:46:58.050Z,5.4
2022-10-01T08:48:14.293Z,8.2
2022-10-01T08:49:29.532Z,9.5
2022-10-01T08:50:45.771Z,7
2022-10-01T08:52:02.016Z,6.9
2022-10-01T08:53:18.260Z,5.5
2022-10-01T08:54:34.498Z,8.4
2022-10-01T08:55:50.720Z,7.1
2022-10-01T08:57:06.964Z,5.3
2022-10-01T08:58:23.202Z,4.3
2022-10-01T08:59:39.453Z,5.8
2022-10-01T09:00:55.686Z,5.3
2022-10-01T09:02:11.922Z,5.1
2022-10-01T09:03:28.154Z,5.8
2022-10-01T09:04:44.410Z,5.2
2022-10-01T09:05:59.656Z,10.1
2022-10-01T09:07:15.900Z,4.1
2022-10-01T09:08:32.124Z,4
2022-10-01T09:09:48.363Z,6.1
2022-10-01T09:11:04.602Z,4.7
2022-10-01T09:12:20.852Z,4.4
2022-10-01T09:13:37.089Z,6.3
2022-10-01T09:14:53.326Z,6.7
2022-10-01T09:16:09.558Z,4.3
2022-10-01T09:17:25.800Z,4.9
2022-10-01T09:18:42.047Z,4.1
2022-10-01T09:19:58.288Z,4
2022-10-01T09:21:14.525Z,4.3
2022-10-01T09:22:29.783Z,4.4
2022-10-01T09:25:02.259Z,4.2
2022-10-01T09:26:18.483Z,4.8
2022-10-01T09:27:34.727Z,4.6
2022-10-01T09:28:50.974Z,3.8
2022-10-01T09:30:07.206Z,4.8
2022-10-01T09:31:23.437Z,3.1
2022-10-01T09:32:39.688Z,3.3
2022-10-01T09:33:55.928Z,3.3
2022-10-01T09:35:12.165Z,3.9
2022-10-01T09:36:28.394Z,4.4
2022-10-01T09:37:44.644Z,3.9
2022-10-01T09:38:59.893Z,3.4
2022-10-01T09:40:16.120Z,3.3
2022-10-01T09:41:32.374Z,3.6
2022-10-01T09:42:48.612Z,4.2
2022-10-01T09:44:04.845Z,5.8
2022-10-01T09:45:21.075Z,4
2022-10-01T09:46:36.335Z,5.7
2022-10-01T09:47:52.578Z,6
2022-10-01T09:49:08.826Z,2.7
2022-10-01T09:50:25.060Z,2.3
2022-10-01T09:51:41.295Z,3
2022-10-01T09:52:57.546Z,5.3
2022-10-01T09:54:13.780Z,4
2022-10-01T09:55:30.023Z,2.7
2022-10-01T09:56:46.250Z,4.6
2022-10-01T09:58:02.494Z,4
2022-10-01T09:59:18.741Z,3.3
2022-10-01T10:00:34.963Z,2.6
2022-10-01T10:01:51.219Z,7.3
2022-10-01T10:03:06.465Z,3.6
2022-10-01T10:04:22.696Z,4.2
2022-10-01T10:05:38.939Z,3.3
2022-10-01T10:06:55.176Z,3.6
2022-10-01T10:08:11.409Z,5.3
2022-10-01T10:09:27.659Z,4.6
2022-10-01T10:10:43.901Z,7.7
2022-10-01T10:12:00.140Z,4.9
2022-10-01T10:13:16.376Z,5.6
2022-10-01T10:14:32.613Z,3.1
2022-10-01T10:15:48.841Z,8.1
2022-10-01T10:17:05.079Z,8.2
2022-10-01T10:18:21.317Z,5.3
2022-10-01T10:19:36.586Z,5.9
2022-10-01T10:20:52.820Z,3.5
2022-10-01T10:22:09.051Z,4.6
2022-10-01T10:23:25.296Z,7.5
2022-10-01T10:24:41.538Z,6.1
2022-10-01T10:25:57.778Z,4.8
2022-10-01T10:27:14.017Z,3
2022-10-01T10:28:30.258Z,4.6
2022-10-01T10:29:46.502Z,4.8
2022-10-01T10:31:02.721Z,5
2022-10-01T10:32:18.960Z,2.7
2022-10-01T10:33:35.219Z,5.2
2022-10-01T10:34:51.459Z,4.6
2022-10-01T10:36:06.699Z,4.1
2022-10-01T10:37:22.936Z,6.2
2022-10-01T10:38:39.179Z,3.2
2022-10-01T10:41:11.664Z,2
2022-10-01T10:42:27.904Z,5.8
2022-10-01T10:43:44.135Z,5.5
2022-10-01T10:45:00.376Z,3.9
2022-10-01T10:46:16.618Z,2.8
2022-10-01T10:47:32.855Z,3.8
2022-10-01T10:48:49.088Z,4.1
2022-10-01T10:50:05.323Z,4
2022-10-01T10:51:21.563Z,2.3
2022-10-01T10:52:36.829Z,4.3
2022-10-01T10:53:53.062Z,3.1
2022-10-01T10:55:09.297Z,3.4
2022-10-01T10:56:25.534Z,3.2
2022-10-01T10:57:41.768Z,3.7
2022-10-01T10:58:58.012Z,4.5
2022-10-01T11:00:14.243Z,4.4
2022-10-01T11:01:30.483Z,3.2
2022-10-01T11:02:46.723Z,6
2022-10-01T11:04:02.969Z,2.4
2022-10-01T11:05:19.200Z,2.9
2022-10-01T11:06:35.453Z,4.8
2022-10-01T11:07:51.687Z,2.8
2022-10-01T11:09:06.943Z,4.2
2022-10-01T11:10:23.173Z,2.5
2022-10-01T11:11:39.423Z,2.1
2022-10-01T11:12:55.663Z,3.3
2022-10-01T11:14:11.903Z,2.4
2022-10-01T11:15:28.127Z,2.4
2022-10-01T11:16:44.375Z,3.4
2022-10-01T11:18:00.616Z,4.6
2022-10-01T11:19:16.859Z,3.8
2022-10-01T11:20:33.097Z,4.5
2022-10-01T11:21:49.322Z,5.3
2022-10-01T11:23:05.572Z,5
2022-10-01T11:24:21.803Z,2.7
2022-10-01T11:25:37.057Z,2.5
2022-10-01T11:26:53.303Z,6.5
2022-10-01T11:28:09.525Z,2
2022-10-01T11:29:25.783Z,1.6
2022-10-01T11:30:42.008Z,5.1
2022-10-01T11:31:58.246Z,5.4
2022-10-01T11:33:14.488Z,3.9
2022-10-01T11:34:30.724Z,5.7
2022-10-01T11:35:46.972Z,4.3
2022-10-01T11:37:03.213Z,6.8
2022-10-01T11:38:19.455Z,3.2
2022-10-01T11:39:35.678Z,2
2022-10-01T11:40:51.919Z,5.3
2022-10-01T11:42:07.156Z,3.4
2022-10-01T11:43:23.385Z,2.9
2022-10-01T11:44:39.629Z,3.9
2022-10-01T11:45:55.877Z,2.4
2022-10-01T11:47:12.102Z,2.5
2022-10-01T11:48:28.353Z,5.6
2022-10-01T11:49:44.592Z,1.3
2022-10-01T11:51:00.818Z,1.4
2022-10-01T11:52:17.070Z,1.8
2022-10-01T11:53:33.314Z,2.5
2022-10-01T11:54:49.536Z,2.4
2022-10-01T11:56:05.787Z,2.6
2022-10-01T11:57:22.012Z,3
2022-10-01T11:58:37.272Z,2.4
2022-10-01T11:59:53.512Z,1.3
2022-10-01T12:01:09.763Z,1.7
2022-10-01T12:02:25.999Z,1.6
2022-10-01T12:03:42.237Z,2.9
2022-10-01T12:04:58.476Z,1.6
2022-10-01T12:06:14.705Z,2.9
2022-10-01T12:07:30.955Z,1.6
2022-10-01T12:08:47.187Z,1.8
2022-10-01T12:10:03.424Z,1.7
2022-10-01T12:11:19.651Z,1.1
2022-10-01T12:12:35.894Z,1.4
2022-10-01T12:13:52.145Z,1.4
2022-10-01T12:15:07.393Z,1.9
2022-10-01T12:16:23.625Z,2
2022-10-01T12:17:39.869Z,2
2022-10-01T12:18:56.120Z,4.2
2022-10-01T12:20:12.352Z,1.5
2022-10-01T12:21:28.585Z,1.6
2022-10-01T12:22:44.828Z,4.6
2022-10-01T12:24:01.056Z,7.4
2022-10-01T12:25:17.305Z,1.6
2022-10-01T12:26:33.543Z,1.1
2022-10-01T12:27:49.773Z,1
2022-10-01T12:29:06.022Z,1.6
2022-10-01T12:30:22.254Z,0.8
2022-10-01T12:31:37.505Z,1.4
2022-10-01T12:32:53.755Z,0.8
2022-10-01T12:34:09.983Z,0.9
2022-10-01T12:35:26.231Z,0.9
2022-10-01T12:36:42.472Z,0.9
2022-10-01T12:37:58.706Z,1.6
2022-10-01T12:39:14.945Z,0.8
2022-10-01T12:40:31.191Z,0.6
2022-10-01T12:41:47.419Z,0.9
2022-10-01T12:43:03.655Z,0.8
2022-10-01T12:44:19.905Z,1.4
2022-10-01T12:45:36.134Z,1.3
2022-10-01T12:46:52.381Z,0.8
2022-10-01T12:48:07.633Z,0.7
2022-10-01T12:49:23.877Z,1.4
2022-10-01T12:50:40.119Z,1
2022-10-01T12:51:56.354Z,0.7
2022-10-01T12:53:12.589Z,0.7
2022-10-01T12:54:28.823Z,0.7
2022-10-01T12:55:45.070Z,0.9
2022-10-01T12:57:01.298Z,1.6
2022-10-01T12:58:17.546Z,0.4
2022-10-01T12:59:33.770Z,1.5
2022-10-01T13:00:50.021Z,1.9
2022-10-01T13:02:06.250Z,0.7
2022-10-01T13:03:22.504Z,1.1
2022-10-01T13:04:37.754Z,0.8
2022-10-01T13:05:53.989Z,0.7
2022-10-01T13:07:10.222Z,0.8
2022-10-01T13:08:26.458Z,0.6
2022-10-01T13:09:42.715Z,0.6
2022-10-01T13:10:58.952Z,1.3
2022-10-01T13:12:15.190Z,1.6
2022-10-01T13:13:31.418Z,0.9
2022-10-01T13:14:47.662Z,1.4
2022-10-01T13:16:03.895Z,1.7
2022-10-01T13:17:20.147Z,0.7
2022-10-01T13:18:36.385Z,1.5
2022-10-01T13:19:52.611Z,1.5
2022-10-01T13:21:07.872Z,1.4
2022-10-01T13:22:24.104Z,0.9
2022-10-01T13:23:40.349Z,0.9
2022-10-01T13:24:56.586Z,1
2022-10-01T13:26:12.831Z,1.3
2022-10-01T13:27:29.064Z,3
2022-10-01T13:28:45.309Z,1
2022-10-01T13:30:01.548Z,1.6
2022-10-01T13:31:17.781Z,1.5
2022-10-01T13:32:34.011Z,0.7
2022-10-01T13:33:50.250Z,0.5
2022-10-01T13:35:06.485Z,2.4
2022-10-01T13:36:22.740Z,1
2022-10-01T13:37:37.986Z,2.9
2022-10-01T13:38:54.232Z,1.2
2022-10-01T13:40:10.460Z,1.4
2022-10-01T13:41:26.701Z,0.4
2022-10-01T13:42:42.000Z,1.6
2022-10-01T13:43:59.176Z,1.1
2022-10-01T13:45:15.411Z,0.8
2022-10-01T13:46:31.654Z,1.5
2022-10-01T13:47:47.904Z,2.8
2022-10-01T13:49:04.130Z,1
2022-10-01T13:50:20.378Z,0.9
2022-10-01T13:51:36.612Z,0.6
2022-10-01T13:52:52.856Z,1.3
2022-10-01T13:54:08.108Z,1.5
2022-10-01T13:55:24.345Z,3.1
2022-10-01T13:56:40.571Z,0.6
2022-10-01T13:57:56.820Z,2
2022-10-01T13:59:13.065Z,1.5
2022-10-01T14:00:29.297Z,1.8
2022-10-01T14:01:44.551Z,1.4
2022-10-01T14:03:00.791Z,6.1
2022-10-01T14:04:17.025Z,10.7
2022-10-01T14:05:33.275Z,1.9
2022-10-01T14:06:49.517Z,1.3
2022-10-01T14:08:05.751Z,0.9
2022-10-01T14:09:21.997Z,1.6
2022-10-01T14:10:38.217Z,0.4
2022-10-01T14:11:54.463Z,1.7
2022-10-01T14:13:10.696Z,0.9
2022-10-01T14:14:26.935Z,0.3
2022-10-01T14:15:43.175Z,1
2022-10-01T14:16:59.412Z,0.3
2022-10-01T14:18:14.680Z,0.5
2022-10-01T14:19:30.907Z,0.5
2022-10-01T14:20:47.167Z,1.4
2022-10-01T14:22:03.386Z,0.7
2022-10-01T14:23:19.624Z,2.9
2022-10-01T14:24:35.871Z,1.2
2022-10-01T14:25:52.106Z,0.9
2022-10-01T14:27:08.339Z,0.8
2022-10-01T14:28:24.589Z,1.1
2022-10-01T14:29:40.828Z,0.4
2022-10-01T14:30:57.058Z,0.5
2022-10-01T14:32:13.291Z,0.5
2022-10-01T14:33:29.544Z,0.7
2022-10-01T14:34:44.797Z,0.7
2022-10-01T14:36:01.029Z,0.9
2022-10-01T14:37:17.275Z,0.7
2022-10-01T14:38:33.506Z,0.4
2022-10-01T14:39:49.742Z,0.9
2022-10-01T14:41:05.990Z,2.7
2022-10-01T14:42:22.219Z,0.9
2022-10-01T14:43:38.472Z,1
2022-10-01T14:44:54.701Z,0.8
2022-10-01T14:46:10.942Z,2.8
2022-10-01T14:47:27.177Z,1.8
2022-10-01T14:48:43.418Z,0.4
2022-10-01T14:49:59.650Z,0.4
2022-10-01T14:51:14.917Z,0.4
2022-10-01T14:52:31.155Z,1.9
2022-10-01T14:53:47.381Z,0.4
2022-10-01T14:55:03.633Z,1.7
2022-10-01T14:56:19.866Z,0.3
2022-10-01T14:57:36.101Z,2.7
2022-10-01T14:58:52.338Z,0.8
2022-10-01T15:00:08.587Z,1.3
2022-10-01T15:01:24.820Z,2
2022-10-01T15:02:41.059Z,0.6
2022-10-01T15:03:57.296Z,0.5
2022-10-01T15:05:13.524Z,1.4
2022-10-01T15:06:29.763Z,0.7
2022-10-01T15:07:45.021Z,0.7
2022-10-01T15:09:01.259Z,0.7
2022-10-01T15:10:17.504Z,0.8
2022-10-01T15:11:33.748Z,0.6
2022-10-01T15:12:49.989Z,1.2
2022-10-01T15:14:06.212Z,0.5
2022-10-01T15:15:22.454Z,1
2022-10-01T15:16:38.706Z,0.5
2022-10-01T15:17:54.945Z,0.6
2022-10-01T15:19:11.164Z,0.5
2022-10-01T15:20:27.412Z,2.2
2022-10-01T15:21:43.662Z,0.6
2022-10-01T15:22:59.889Z,0.4
2022-10-01T15:24:15.143Z,2.2
2022-10-01T15:25:31.393Z,0.3
2022-10-01T15:26:47.615Z,1.3
2022-10-01T15:28:03.853Z,1
2022-10-01T15:29:20.101Z,0.4
2022-10-01T15:30:36.336Z,2.1
2022-10-01T15:31:52.576Z,1.2
2022-10-01T15:33:08.816Z,0.4
2022-10-01T15:34:25.062Z,0.8
2022-10-01T15:35:41.302Z,1.2
2022-10-01T15:36:57.541Z,0.3
2022-10-01T15:38:13.773Z,0.6
2022-10-01T15:39:30.013Z,1.2
2022-10-01T15:40:45.270Z,2.9
2022-10-01T15:42:01.493Z,2.2
2022-10-01T15:43:17.745Z,1.2
2022-10-01T15:44:33.982Z,0.5
2022-10-01T15:45:50.206Z,0.8
2022-10-01T15:47:06.465Z,0.4
2022-10-01T15:48:22.703Z,1.2
2022-10-01T15:49:38.922Z,0.9
2022-10-01T15:50:55.174Z,1.1
2022-10-01T15:52:11.417Z,0.5
2022-10-01T15:53:27.652Z,0.7
2022-10-01T15:54:43.885Z,0.7
2022-10-01T15:56:00.133Z,1.3
2022-10-01T15:57:15.373Z,0.1
2022-10-01T15:58:31.623Z,0.5
2022-10-01T15:59:47.863Z,2.4
2022-10-01T16:01:04.107Z,1.4
2022-10-01T16:02:20.330Z,0.8
2022-10-01T16:03:36.571Z,0.6
2022-10-01T16:04:52.822Z,1.9
2022-10-01T16:06:09.055Z,1.3
2022-10-01T16:08:41.526Z,1.9
2022-10-01T16:09:57.774Z,0.6
2022-10-01T16:11:14.013Z,1.2
2022-10-01T16:12:30.243Z,1
2022-10-01T16:13:45.497Z,1.2
2022-10-01T16:15:01.728Z,3.9
2022-10-01T16:16:17.980Z,2.4
2022-10-01T16:17:34.213Z,2.3
2022-10-01T16:18:50.453Z,0.6
2022-10-01T16:20:06.697Z,1.4
2022-10-01T16:21:22.933Z,0.4
2022-10-01T16:22:39.174Z,2.1
2022-10-01T16:23:55.406Z,0.8
2022-10-01T16:25:11.639Z,2.1
2022-10-01T16:26:27.890Z,3.1
2022-10-01T16:29:00.355Z,1.7
2022-10-01T16:30:15.624Z,2.3
2022-10-01T16:31:31.855Z,0.8
2022-10-01T16:32:48.087Z,3.2
2022-10-01T16:34:04.331Z,1.5
2022-10-01T16:35:20.563Z,3.5
2022-10-01T16:36:36.811Z,2.8
2022-10-01T16:37:53.050Z,2.9
2022-10-01T16:39:09.281Z,1.8
2022-10-01T16:40:25.525Z,2.6
2022-10-01T16:41:41.772Z,2.6
2022-10-01T16:42:57.996Z,4.5
2022-10-01T16:44:14.231Z,0.9
2022-10-01T16:45:30.484Z,3.1
2022-10-01T16:46:45.737Z,1.6
2022-10-01T16:48:01.981Z,1.6
2022-10-01T16:49:18.206Z,5
2022-10-01T16:50:34.441Z,1.3
2022-10-01T16:51:50.688Z,5.7
2022-10-01T16:53:06.935Z,2.5
2022-10-01T16:54:23.158Z,2.2
2022-10-01T16:55:39.410Z,5.8
2022-10-01T16:56:55.654Z,4.5
2022-10-01T16:58:11.890Z,1.7
2022-10-01T16:59:28.125Z,3.1
2022-10-01T17:00:44.359Z,6
2022-10-01T17:02:00.599Z,1.8
2022-10-01T17:03:15.854Z,6.8
2022-10-01T17:04:32.084Z,5.7
2022-10-01T17:05:48.336Z,2.7
2022-10-01T17:07:04.566Z,4.3
2022-10-01T17:08:20.804Z,5.1
2022-10-01T17:09:37.042Z,5.1
2022-10-01T17:10:53.276Z,6.1
2022-10-01T17:12:09.531Z,3.3
2022-10-01T17:13:25.752Z,3.2
2022-10-01T17:14:42.057Z,5.2
2022-10-01T17:15:58.339Z,1.3
2022-10-01T17:17:14.643Z,2.2
2022-10-01T17:18:30.932Z,3.8
2022-10-01T17:19:46.231Z,1.4
2022-10-01T17:21:02.540Z,1.4
2022-10-01T17:22:18.830Z,7.5
2022-10-01T17:23:35.122Z,5.1
2022-10-01T17:24:51.415Z,6.2
2022-10-01T17:26:07.695Z,2.1
2022-10-01T17:27:23.988Z,3.7
2022-10-01T17:28:40.279Z,3.2
2022-10-01T17:29:56.588Z,3.1
2022-10-01T17:31:12.875Z,1.4
2022-10-01T17:32:29.159Z,1.9
2022-10-01T17:33:45.464Z,1
2022-10-01T17:35:01.741Z,2.1
2022-10-01T17:36:17.053Z,1.4
2022-10-01T17:37:33.357Z,3.8
2022-10-01T17:38:49.647Z,2.3
2022-10-01T17:40:05.944Z,2.1
2022-10-01T17:41:22.224Z,1.4
2022-10-01T17:43:54.824Z,3.8